»·PEaware :: NKS711 KSAN-KLAS

NKS711 :: KSAN-KLAS

FLIGHT INFORMATION

Flight Status: Arrived
Operator:
Spirit Airlines
More flights by this operator :: More flights under this callsign
Pilot: Anonymous 15267 (15267)
Aircraft: AIRBUS A320
(A320)
More flights by this aircraft type
Origin: KSAN San Diego Intl-Lindbergh
United States
Destination: KLAS McCarran Intl
United States
More flights between these airports :: More routes between these airports
Route: +PADRZ2 CHKNN SEBBY YELAH MISEN KEPEC6
File this flight plan on PilotEdge
Remarks: RMK / SIMBRIEF
Altitude:
(Current/Filed)
35,000ft
Speed:
(Current/Filed)
467kts
Departed: 20-Jul-20 11:34 AM
Arrived: 20-Jul-20 12:21 PM
Distance/Time
Traveled:
225nm/0:47
Distance/Time
To Go:
Arrived

Flight Plot

Page will automatically refresh every two minutes.


Map Options




Map Legend


Flown Route
Filed Route
Departure Airport
Arrival Airport
Navaid (VOR, NDB)
Fix

Horizontal Profiles

Position Reports

Time Latitude Longitude Heading Altitude Ground
Speed
20-Jul-20 10:43 32.733464 -117.200630 264 29ft 0kts
20-Jul-20 10:44 32.733464 -117.200630 264 29ft 0kts
20-Jul-20 10:45 32.733464 -117.200630 264 29ft 0kts
20-Jul-20 10:46 32.733464 -117.200630 264 29ft 0kts
20-Jul-20 10:47 32.733464 -117.200630 264 29ft 0kts
20-Jul-20 10:48 32.733464 -117.200630 264 29ft 0kts
20-Jul-20 10:49 32.733464 -117.200630 264 29ft 0kts
20-Jul-20 10:50 32.733464 -117.200630 264 29ft 0kts
20-Jul-20 10:51 32.733464 -117.200630 264 29ft 0kts
20-Jul-20 10:52 32.733464 -117.200630 264 29ft 0kts
20-Jul-20 10:53 32.733464 -117.200630 264 29ft 0kts
20-Jul-20 10:54 32.733464 -117.200630 264 29ft 0kts
20-Jul-20 10:55 32.733464 -117.200630 264 29ft 0kts
20-Jul-20 10:56 32.733464 -117.200630 264 29ft 0kts
20-Jul-20 10:56 32.733464 -117.200630 264 29ft 0kts
20-Jul-20 10:58 32.733464 -117.200630 264 29ft 0kts
20-Jul-20 10:59 32.733464 -117.200630 264 29ft 0kts
20-Jul-20 10:59 32.733464 -117.200630 264 29ft 0kts
20-Jul-20 11:01 32.733464 -117.200630 264 29ft 0kts
20-Jul-20 11:02 32.733464 -117.200630 264 29ft 0kts
20-Jul-20 11:02 32.733464 -117.200630 264 29ft 0kts
20-Jul-20 11:03 32.733464 -117.200630 264 29ft 0kts
20-Jul-20 11:05 32.733464 -117.200630 264 29ft 0kts
20-Jul-20 11:05 32.733464 -117.200630 264 29ft 0kts
20-Jul-20 11:06 32.733464 -117.200630 264 29ft 0kts
20-Jul-20 11:07 32.733464 -117.200630 264 29ft 0kts
20-Jul-20 11:08 32.733464 -117.200630 264 29ft 0kts
20-Jul-20 11:09 32.733464 -117.200630 264 29ft 0kts
20-Jul-20 11:10 32.733464 -117.200630 264 29ft 0kts
20-Jul-20 11:11 32.733464 -117.200630 264 29ft 0kts
20-Jul-20 11:12 32.733464 -117.200630 264 29ft 0kts
20-Jul-20 11:13 32.733464 -117.200630 264 29ft 0kts
20-Jul-20 11:14 32.733464 -117.200630 264 29ft 0kts
20-Jul-20 11:15 32.733464 -117.200630 264 29ft 0kts
20-Jul-20 11:16 32.733464 -117.200630 264 29ft 0kts
20-Jul-20 11:17 32.733464 -117.200630 264 29ft 0kts
20-Jul-20 11:18 32.733464 -117.200630 264 29ft 0kts
20-Jul-20 11:19 32.733464 -117.200630 264 29ft 0kts
20-Jul-20 11:20 32.733464 -117.200630 264 29ft 0kts
20-Jul-20 11:21 32.733468 -117.200590 264 29ft 1kts
20-Jul-20 11:22 32.733196 -117.199952 14 29ft 1kts
20-Jul-20 11:23 32.733196 -117.199952 14 29ft 0kts
20-Jul-20 11:24 32.733196 -117.199952 14 29ft 0kts
20-Jul-20 11:25 32.733197 -117.199952 14 29ft 0kts
20-Jul-20 11:26 32.733198 -117.199952 14 29ft 0kts
20-Jul-20 11:27 32.734382 -117.199597 14 29ft 10kts
20-Jul-20 11:28 32.733829 -117.195036 107 29ft 20kts
20-Jul-20 11:29 32.731915 -117.187222 107 29ft 28kts
20-Jul-20 11:30 32.729716 -117.178128 107 29ft 29kts
20-Jul-20 11:31 32.729526 -117.177319 104 29ft 0kts
20-Jul-20 11:32 32.730281 -117.176120 285 29ft 10kts
20-Jul-20 11:33 32.739526 -117.210409 296 1237ft 164kts
20-Jul-20 11:34 32.768307 -117.261911 302 2864ft 221kts
20-Jul-20 11:35 32.806698 -117.329951 306 5263ft 262kts
20-Jul-20 11:36 32.852313 -117.400005 307 8036ft 274kts
20-Jul-20 11:37 32.900039 -117.474232 307 10390ft 293kts
20-Jul-20 11:38 32.954524 -117.559087 307 11440ft 351kts
20-Jul-20 11:39 33.017718 -117.657772 307 12795ft 386kts
20-Jul-20 11:40 33.087990 -117.755549 318 14590ft 393kts
20-Jul-20 11:41 33.172921 -117.840189 319 16512ft 401kts
20-Jul-20 11:42 33.262713 -117.921603 321 18312ft 409kts
20-Jul-20 11:43 33.350110 -118.009082 319 19971ft 416kts
20-Jul-20 11:44 33.436246 -118.095423 319 21462ft 422kts
20-Jul-20 11:45 33.524750 -118.184663 319 22824ft 429kts
20-Jul-20 11:46 33.623704 -118.261837 341 24094ft 438kts
20-Jul-20 11:47 33.738638 -118.230966 40 25178ft 463kts
20-Jul-20 11:48 33.826491 -118.115329 44 26274ft 473kts
20-Jul-20 11:49 33.917671 -117.999700 44 27290ft 481kts
20-Jul-20 11:50 34.008862 -117.881463 44 28363ft 485kts
20-Jul-20 11:51 34.100394 -117.761652 47 29654ft 484kts
20-Jul-20 11:52 34.185836 -117.636436 48 30940ft 481kts
20-Jul-20 11:53 34.270735 -117.512224 49 32179ft 479kts
20-Jul-20 11:54 34.355324 -117.387622 49 33390ft 476kts
20-Jul-20 11:55 34.439035 -117.264104 50 34423ft 475kts
20-Jul-20 11:56 34.522826 -117.139938 50 35127ft 473kts
20-Jul-20 11:57 34.606050 -117.016228 50 35131ft 474kts
20-Jul-20 11:58 34.689200 -116.892146 50 35107ft 473kts
20-Jul-20 11:59 34.772076 -116.768076 50 34101ft 471kts
20-Jul-20 12:00 34.855548 -116.644851 44 31525ft 476kts
20-Jul-20 12:01 34.959424 -116.543149 37 28530ft 480kts
20-Jul-20 12:02 35.063811 -116.441199 37 25175ft 482kts
20-Jul-20 12:03 35.161887 -116.330186 45 24069ft 480kts
20-Jul-20 12:04 35.248571 -116.220543 45 21414ft 467kts
20-Jul-20 12:05 35.337617 -116.108736 45 18868ft 441kts
20-Jul-20 12:06 35.423101 -116.000803 46 17767ft 436kts
20-Jul-20 12:07 35.504082 -115.898214 46 16283ft 407kts
20-Jul-20 12:08 35.577450 -115.805032 46 15579ft 352kts
20-Jul-20 12:09 35.641319 -115.723692 46 14467ft 318kts
20-Jul-20 12:10 35.699035 -115.642415 45 13007ft 318kts
20-Jul-20 12:11 35.759214 -115.566899 46 11958ft 305kts
20-Jul-20 12:12 35.817662 -115.491792 46 10438ft 302kts
20-Jul-20 12:13 35.876434 -115.416711 46 8625ft 310kts
20-Jul-20 12:14 35.945214 -115.365180 357 7565ft 293kts
20-Jul-20 12:15 36.024813 -115.377979 351 6982ft 272kts
20-Jul-20 12:16 36.086201 -115.356011 69 6439ft 235kts
20-Jul-20 12:17 36.074517 -115.289423 99 5199ft 179kts
20-Jul-20 12:18 36.074065 -115.233255 93 3577ft 149kts
20-Jul-20 12:19 36.073668 -115.182814 94 2586ft 148kts
20-Jul-20 12:20 36.073686 -115.140084 92 2195ft 40kts
20-Jul-20 12:21 36.074848 -115.134240 59 2195ft 0kts
20-Jul-20 12:22 36.075469 -115.133865 8 2195ft 7kts
20-Jul-20 12:23 36.077504 -115.133814 8 2195ft 0kts
20-Jul-20 12:24 36.078646 -115.133742 359 2195ft 13kts
20-Jul-20 12:25 36.081419 -115.134432 296 2195ft 6kts
20-Jul-20 12:26 36.081099 -115.135142 224 2195ft 0kts

Navigation Log

Ident Type
Flight plan parsing failed, navigation log unavailable